^^
Grace C. Lehan Memorial Weather Station Historical Data
Daily Summary for October 11, 2021 Units:  Both    English   Metric
Daily Weekly Monthly Yearly
  High: Low: Average:
Temperature: 70.3 °F /  21.3 °C 58.3 °F /  14.6 °C 63.4 °F /  17.4 °C
Dew Point: 62.8 °F /  17.1 °C 56.3 °F /  13.5 °C 59.1 °F /  15.1 °C
Humidity: 93% 72.2% 86%
Wind Speed: 4.5mph /  7.2km/h - 0.4mph /  0.6km/h
Wind Gust: 14mph /  22.5km/h - -
Wind- - East
Pressure: 30.12 in /  1019.9 hPa 30.05 in /  1017.5 hPa -
Precipitation: 0.00 in /  0 mm    
 
 
Tabular Data for October 11, 2021
Time Temperature Dew Point Pressure Wind Wind Speed Wind Gust Humidity Rainfall Rate (Hourly) solar
00:09 60 °F /  15.6 °C 57.5 °F /  14.2 °C 30.12in /  1019.9hPa NNW 0.5mph /  0.8km/h 6mph /  9.7km/h 91.6% 0.00in /  0mm 0 W/m2
00:14 60 °F /  15.6 °C 57.6 °F /  14.2 °C 30.12in /  1019.9hPa NE 0.1mph /  0.2km/h 6mph /  9.7km/h 92% 0.00in /  0mm 0 W/m2
00:19 59.9 °F /  15.5 °C 57.6 °F /  14.2 °C 30.12in /  1019.9hPa NNW 0.3mph /  0.5km/h 6mph /  9.7km/h 92% 0.00in /  0mm 0 W/m2
00:24 59.9 °F /  15.5 °C 57.6 °F /  14.2 °C 30.12in /  1019.9hPa NNW 0.8mph /  1.3km/h 10mph /  16.1km/h 92% 0.00in /  0mm 0 W/m2
00:29 59.8 °F /  15.4 °C 57.5 °F /  14.2 °C 30.11in /  1019.5hPa North 0.1mph /  0.2km/h 10mph /  16.1km/h 92% 0.00in /  0mm 0 W/m2
00:34 59.8 °F /  15.4 °C 57.7 °F /  14.3 °C 30.11in /  1019.5hPa Calm   10mph /  16.1km/h 92.6% 0.00in /  0mm 0 W/m2
00:39 59.8 °F /  15.4 °C 57.8 °F /  14.3 °C 30.11in /  1019.5hPa ENE 0.1mph /  0.2km/h 4mph /  6.4km/h 93% 0.00in /  0mm 0 W/m2
00:44 59.8 °F /  15.4 °C 57.8 °F /  14.3 °C 30.11in /  1019.5hPa East 0.7mph /  1.1km/h 4mph /  6.4km/h 93% 0.00in /  0mm 0 W/m2
00:49 59.8 °F /  15.4 °C 57.8 °F /  14.3 °C 30.11in /  1019.5hPa Calm   4mph /  6.4km/h 93% 0.00in /  0mm 0 W/m2
00:54 59.8 °F /  15.4 °C 57.8 °F /  14.3 °C 30.11in /  1019.5hPa Calm   4mph /  6.4km/h 93% 0.00in /  0mm 0 W/m2
00:59 59.8 °F /  15.4 °C 57.8 °F /  14.3 °C 30.10in /  1019.2hPa Calm   4mph /  6.4km/h 93% 0.00in /  0mm 0 W/m2
01:04 59.9 °F /  15.5 °C 57.8 °F /  14.3 °C 30.10in /  1019.2hPa Calm   4mph /  6.4km/h 93% 0.00in /  0mm 0 W/m2
01:09 59.9 °F /  15.5 °C 57.9 °F /  14.4 °C 30.10in /  1019.2hPa North 0.1mph /  0.2km/h 3mph /  4.8km/h 93% 0.00in /  0mm 0 W/m2
01:14 59.9 °F /  15.5 °C 57.9 °F /  14.4 °C 30.10in /  1019.2hPa North 0.6mph /  1km/h 5mph /  8km/h 93% 0.00in /  0mm 0 W/m2
01:19 59.9 °F /  15.5 °C 57.9 °F /  14.4 °C 30.10in /  1019.2hPa North 0.1mph /  0.2km/h 5mph /  8km/h 93% 0.00in /  0mm 0 W/m2
01:24 59.9 °F /  15.5 °C 57.9 °F /  14.4 °C 30.10in /  1019.2hPa NW 0.3mph /  0.5km/h 7mph /  11.3km/h 93% 0.00in /  0mm 0 W/m2
01:28 60 °F /  15.6 °C 58 °F /  14.4 °C 30.10in /  1019.2hPa NW 1mph /  1.6km/h 7mph /  11.3km/h 93% 0.00in /  0mm 0 W/m2
01:34 60 °F /  15.6 °C 58 °F /  14.4 °C 30.10in /  1019.2hPa NE 0.1mph /  0.2km/h 7mph /  11.3km/h 93% 0.00in /  0mm 0 W/m2
01:39 60 °F /  15.6 °C 58 °F /  14.4 °C 30.09in /  1018.8hPa NNE 0.9mph /  1.4km/h 5mph /  8km/h 93% 0.00in /  0mm 0 W/m2
01:44 60 °F /  15.6 °C 58 °F /  14.4 °C 30.09in /  1018.8hPa ENE 0.3mph /  0.5km/h 5mph /  8km/h 93% 0.00in /  0mm 0 W/m2
01:49 60 °F /  15.6 °C 58 °F /  14.4 °C 30.09in /  1018.8hPa North 0.2mph /  0.3km/h 5mph /  8km/h 93% 0.00in /  0mm 0 W/m2
01:54 60 °F /  15.6 °C 58 °F /  14.4 °C 30.08in /  1018.5hPa NNE 0.1mph /  0.2km/h 5mph /  8km/h 93% 0.00in /  0mm 0 W/m2
01:59 60 °F /  15.6 °C 58 °F /  14.4 °C 30.08in /  1018.5hPa North 0.2mph /  0.3km/h 6mph /  9.7km/h 93% 0.00in /  0mm 0 W/m2
02:04 60 °F /  15.6 °C 58 °F /  14.4 °C 30.08in /  1018.5hPa South 0.1mph /  0.2km/h 6mph /  9.7km/h 93% 0.00in /  0mm 0 W/m2
02:09 60 °F /  15.6 °C 57.9 °F /  14.4 °C 30.08in /  1018.5hPa SE 0.2mph /  0.3km/h 4mph /  6.4km/h 92.7% 0.00in /  0mm 0 W/m2
02:14 60 °F /  15.6 °C 58 °F /  14.4 °C 30.08in /  1018.5hPa NNE 0.9mph /  1.4km/h 6mph /  9.7km/h 93% 0.00in /  0mm 0 W/m2
02:19 60 °F /  15.6 °C 57.7 °F /  14.3 °C 30.08in /  1018.5hPa ENE 0.1mph /  0.2km/h 6mph /  9.7km/h 92.1% 0.00in /  0mm 0 W/m2
02:24 60 °F /  15.6 °C 57.7 °F /  14.3 °C 30.08in /  1018.5hPa ENE 0.6mph /  1km/h 6mph /  9.7km/h 92% 0.00in /  0mm 0 W/m2
02:29 60 °F /  15.6 °C 57.7 °F /  14.3 °C 30.08in /  1018.5hPa ENE 0.3mph /  0.5km/h 7mph /  11.3km/h 92% 0.00in /  0mm 0 W/m2
02:34 60 °F /  15.6 °C 57.7 °F /  14.3 °C 30.08in /  1018.5hPa ENE 0.4mph /  0.6km/h 7mph /  11.3km/h 92% 0.00in /  0mm 0 W/m2
02:39 60 °F /  15.6 °C 57.7 °F /  14.3 °C 30.08in /  1018.5hPa NNE 0.4mph /  0.6km/h 4mph /  6.4km/h 92% 0.00in /  0mm 0 W/m2
02:44 60 °F /  15.6 °C 57.7 °F /  14.3 °C 30.07in /  1018.2hPa ENE 1mph /  1.6km/h 4mph /  6.4km/h 92% 0.00in /  0mm 0 W/m2
02:49 60 °F /  15.6 °C 57.7 °F /  14.3 °C 30.07in /  1018.2hPa NNE 0.4mph /  0.6km/h 4mph /  6.4km/h 92% 0.00in /  0mm 0 W/m2
02:54 60 °F /  15.6 °C 57.7 °F /  14.3 °C 30.08in /  1018.5hPa NE 0.1mph /  0.2km/h 4mph /  6.4km/h 92% 0.00in /  0mm 0 W/m2
02:59 60 °F /  15.6 °C 57.7 °F /  14.3 °C 30.07in /  1018.2hPa North 0.4mph /  0.6km/h 4mph /  6.4km/h 92.2% 0.00in /  0mm 0 W/m2
03:04 60 °F /  15.6 °C 57.7 °F /  14.3 °C 30.08in /  1018.5hPa NNW 0.5mph /  0.8km/h 6mph /  9.7km/h 92.2% 0.00in /  0mm 0 W/m2
03:09 60 °F /  15.6 °C 57.7 °F /  14.3 °C 30.08in /  1018.5hPa East 0.3mph /  0.5km/h 6mph /  9.7km/h 92% 0.00in /  0mm 0 W/m2
03:14 60 °F /  15.6 °C 57.7 °F /  14.3 °C 30.08in /  1018.5hPa NNE 0.6mph /  1km/h 6mph /  9.7km/h 92% 0.00in /  0mm 0 W/m2
03:19 60 °F /  15.6 °C 57.7 °F /  14.3 °C 30.08in /  1018.5hPa ENE 0.6mph /  1km/h 6mph /  9.7km/h 92% 0.00in /  0mm 0 W/m2
03:24 60 °F /  15.6 °C 57.7 °F /  14.3 °C 30.08in /  1018.5hPa NNE 0.7mph /  1.1km/h 6mph /  9.7km/h 92% 0.00in /  0mm 0 W/m2
03:29 60 °F /  15.6 °C 57.7 °F /  14.3 °C 30.08in /  1018.5hPa NNE 0.1mph /  0.2km/h 6mph /  9.7km/h 92% 0.00in /  0mm 0 W/m2
03:34 60 °F /  15.6 °C 57.7 °F /  14.3 °C 30.08in /  1018.5hPa NE 0.5mph /  0.8km/h 6mph /  9.7km/h 92% 0.00in /  0mm 0 W/m2
03:39 60 °F /  15.6 °C 57.7 °F /  14.3 °C 30.07in /  1018.2hPa NNW 0.5mph /  0.8km/h 7mph /  11.3km/h 92% 0.00in /  0mm 0 W/m2
03:44 60 °F /  15.6 °C 57.7 °F /  14.3 °C 30.07in /  1018.2hPa NNE 0.3mph /  0.5km/h 7mph /  11.3km/h 92% 0.00in /  0mm 0 W/m2
03:49 60 °F /  15.6 °C 57.7 °F /  14.3 °C 30.07in /  1018.2hPa NE 1mph /  1.6km/h 7mph /  11.3km/h 92% 0.00in /  0mm 0 W/m2
03:54 60 °F /  15.6 °C 57.7 °F /  14.3 °C 30.07in /  1018.2hPa NNE 0.2mph /  0.3km/h 7mph /  11.3km/h 92% 0.00in /  0mm 0 W/m2
03:59 60 °F /  15.6 °C 57.7 °F /  14.3 °C 30.07in /  1018.2hPa Calm   7mph /  11.3km/h 92% 0.00in /  0mm 0 W/m2
04:00 60 °F /  15.6 °C 57.7 °F /  14.3 °C 30.07in /  1018.2hPa Calm   7mph /  11.3km/h 92% 0.00in /  0mm 0 W/m2
04:09 60 °F /  15.6 °C 57.7 °F /  14.3 °C 30.07in /  1018.2hPa Calm     92% 0.00in /  0mm 0 W/m2
04:14 60 °F /  15.6 °C 57.7 °F /  14.3 °C 30.07in /  1018.2hPa NNW 0.6mph /  1km/h 6mph /  9.7km/h 92% 0.00in /  0mm 0 W/m2
04:19 60 °F /  15.6 °C 57.7 °F /  14.3 °C 30.07in /  1018.2hPa NNE 0.6mph /  1km/h 6mph /  9.7km/h 92% 0.00in /  0mm 0 W/m2
04:24 60 °F /  15.6 °C 57.7 °F /  14.3 °C 30.07in /  1018.2hPa North 0.9mph /  1.4km/h 6mph /  9.7km/h 92% 0.00in /  0mm 0 W/m2
04:29 60 °F /  15.6 °C 57.7 °F /  14.3 °C 30.07in /  1018.2hPa East 0.1mph /  0.2km/h 6mph /  9.7km/h 92% 0.00in /  0mm 0 W/m2
04:34 60 °F /  15.6 °C 57.7 °F /  14.3 °C 30.07in /  1018.2hPa NE 0.1mph /  0.2km/h 6mph /  9.7km/h 92% 0.00in /  0mm 0 W/m2
04:39 60 °F /  15.6 °C 57.7 °F /  14.3 °C 30.07in /  1018.2hPa NNE 1.2mph /  1.9km/h 7mph /  11.3km/h 92% 0.00in /  0mm 0 W/m2
04:44 60 °F /  15.6 °C 57.7 °F /  14.3 °C 30.07in /  1018.2hPa North 0.8mph /  1.3km/h 7mph /  11.3km/h 92% 0.00in /  0mm 0 W/m2
04:49 60 °F /  15.6 °C 57.7 °F /  14.3 °C 30.08in /  1018.5hPa ENE 1.2mph /  1.9km/h 10mph /  16.1km/h 92% 0.00in /  0mm 0 W/m2
04:54 60 °F /  15.6 °C 57.7 °F /  14.3 °C 30.08in /  1018.5hPa NE 0.5mph /  0.8km/h 10mph /  16.1km/h 92% 0.00in /  0mm 0 W/m2
04:59 60 °F /  15.6 °C 57.7 °F /  14.3 °C 30.08in /  1018.5hPa NE 0.5mph /  0.8km/h 10mph /  16.1km/h 92% 0.00in /  0mm 0 W/m2
05:04 60 °F /  15.6 °C 57.7 °F /  14.3 °C 30.08in /  1018.5hPa North 0.4mph /  0.6km/h 10mph /  16.1km/h 92% 0.00in /  0mm 0 W/m2
05:09 60 °F /  15.6 °C 57.7 °F /  14.3 °C 30.08in /  1018.5hPa North 0.4mph /  0.6km/h 5mph /  8km/h 92% 0.00in /  0mm 0 W/m2
05:14 60 °F /  15.6 °C 57.7 °F /  14.3 °C 30.08in /  1018.5hPa North 0.4mph /  0.6km/h 5mph /  8km/h 92% 0.00in /  0mm 0 W/m2
05:19 60 °F /  15.6 °C 57.7 °F /  14.3 °C 30.08in /  1018.5hPa ENE 1.4mph /  2.3km/h 7mph /  11.3km/h 92% 0.00in /  0mm 0 W/m2
05:24 59.9 °F /  15.5 °C 57.6 °F /  14.2 °C 30.08in /  1018.5hPa NNE 0.7mph /  1.1km/h 7mph /  11.3km/h 92% 0.00in /  0mm 0 W/m2
05:29 59.9 °F /  15.5 °C 57.6 °F /  14.2 °C 30.08in /  1018.5hPa North 1.4mph /  2.3km/h 7mph /  11.3km/h 92% 0.00in /  0mm 0 W/m2
05:34 59.9 °F /  15.5 °C 57.6 °F /  14.2 °C 30.08in /  1018.5hPa NE 1.2mph /  1.9km/h 7mph /  11.3km/h 92% 0.00in /  0mm 0 W/m2
05:39 59.9 °F /  15.5 °C 57.6 °F /  14.2 °C 30.08in /  1018.5hPa ENE 1.2mph /  1.9km/h 7mph /  11.3km/h 92% 0.00in /  0mm 0 W/m2
05:44 59.8 °F /  15.4 °C 57.5 °F /  14.2 °C 30.08in /  1018.5hPa NE 0.8mph /  1.3km/h 7mph /  11.3km/h 92% 0.00in /  0mm 0 W/m2
05:49 59.8 °F /  15.4 °C 57.5 °F /  14.2 °C 30.08in /  1018.5hPa ENE 0.5mph /  0.8km/h 7mph /  11.3km/h 92% 0.00in /  0mm 0 W/m2
05:54 59.8 °F /  15.4 °C 57.5 °F /  14.2 °C 30.08in /  1018.5hPa East 0.9mph /  1.4km/h 7mph /  11.3km/h 92% 0.00in /  0mm 0 W/m2
05:59 59.8 °F /  15.4 °C 57.5 °F /  14.2 °C 30.08in /  1018.5hPa ENE 2.6mph /  4.2km/h 7mph /  11.3km/h 92% 0.00in /  0mm 0 W/m2
06:04 59.8 °F /  15.4 °C 57.5 °F /  14.2 °C 30.08in /  1018.5hPa ENE 1mph /  1.6km/h 7mph /  11.3km/h 92% 0.00in /  0mm 0 W/m2
06:09 59.8 °F /  15.4 °C 57.5 °F /  14.2 °C 30.08in /  1018.5hPa ENE 0.2mph /  0.3km/h 6mph /  9.7km/h 92% 0.00in /  0mm 0 W/m2
06:13 59.8 °F /  15.4 °C 57.5 °F /  14.2 °C 30.08in /  1018.5hPa North 0.2mph /  0.3km/h 6mph /  9.7km/h 92% 0.00in /  0mm 0 W/m2
06:19 59.8 °F /  15.4 °C 57.5 °F /  14.2 °C 30.08in /  1018.5hPa Calm   6mph /  9.7km/h 92% 0.00in /  0mm 0 W/m2
06:24 59.9 °F /  15.5 °C 57.6 °F /  14.2 °C 30.08in /  1018.5hPa NNE 0.4mph /  0.6km/h 6mph /  9.7km/h 92% 0.00in /  0mm 0 W/m2
06:29 59.9 °F /  15.5 °C 57.6 °F /  14.2 °C 30.08in /  1018.5hPa NNE 0.5mph /  0.8km/h 7mph /  11.3km/h 92% 0.00in /  0mm 0 W/m2
06:34 59.9 °F /  15.5 °C 57.6 °F /  14.2 °C 30.09in /  1018.8hPa Calm   7mph /  11.3km/h 92% 0.00in /  0mm 0 W/m2
06:39 59.9 °F /  15.5 °C 57.6 °F /  14.2 °C 30.09in /  1018.8hPa East 0.2mph /  0.3km/h 3mph /  4.8km/h 92% 0.00in /  0mm 0 W/m2
06:44 59.9 °F /  15.5 °C 57.6 °F /  14.2 °C 30.09in /  1018.8hPa NNE 0.4mph /  0.6km/h 4mph /  6.4km/h 92% 0.00in /  0mm 0 W/m2
06:49 60 °F /  15.6 °C 57.7 °F /  14.3 °C 30.09in /  1018.8hPa NNE 0.3mph /  0.5km/h 4mph /  6.4km/h 92% 0.00in /  0mm 0 W/m2
06:54 60 °F /  15.6 °C 57.6 °F /  14.2 °C 30.09in /  1018.8hPa NNE 0.2mph /  0.3km/h 4mph /  6.4km/h 91.8% 0.00in /  0mm 0 W/m2
06:59 60 °F /  15.6 °C 57.4 °F /  14.1 °C 30.09in /  1018.8hPa NE 0.8mph /  1.3km/h 6mph /  9.7km/h 91% 0.00in /  0mm 0 W/m2
07:04 60 °F /  15.6 °C 57.4 °F /  14.1 °C 30.10in /  1019.2hPa North 0.7mph /  1.1km/h 6mph /  9.7km/h 91% 0.00in /  0mm 0 W/m2
07:09 60 °F /  15.6 °C 57.4 °F /  14.1 °C 30.10in /  1019.2hPa ENE 0.1mph /  0.2km/h 5mph /  8km/h 91.2% 0.00in /  0mm 0 W/m2
07:14 60.1 °F /  15.6 °C 57.6 °F /  14.2 °C 30.10in /  1019.2hPa ENE 0.4mph /  0.6km/h 6mph /  9.7km/h 91.7% 0.00in /  0mm 0 W/m2
07:19 60.1 °F /  15.6 °C 57.8 °F /  14.3 °C 30.10in /  1019.2hPa NE 0.2mph /  0.3km/h 6mph /  9.7km/h 92% 0.00in /  0mm 0 W/m2
07:24 60.1 °F /  15.6 °C 57.8 °F /  14.3 °C 30.11in /  1019.5hPa East 0.4mph /  0.6km/h 6mph /  9.7km/h 92% 0.00in /  0mm 0 W/m2
07:29 60.1 °F /  15.6 °C 57.5 °F /  14.2 °C 30.11in /  1019.5hPa NW 0.7mph /  1.1km/h 7mph /  11.3km/h 91% 0.00in /  0mm 5 W/m2
07:34 60.1 °F /  15.6 °C 57.5 °F /  14.2 °C 30.11in /  1019.5hPa NNE 0.2mph /  0.3km/h 7mph /  11.3km/h 91% 0.00in /  0mm 7 W/m2
07:39 60.1 °F /  15.6 °C 57.5 °F /  14.2 °C 30.11in /  1019.5hPa NNW 0.6mph /  1km/h 3mph /  4.8km/h 91% 0.00in /  0mm 9 W/m2
07:44 60.1 °F /  15.6 °C 57.5 °F /  14.2 °C 30.11in /  1019.5hPa North 0.2mph /  0.3km/h 4mph /  6.4km/h 91% 0.00in /  0mm 11 W/m2
07:49 60.1 °F /  15.6 °C 57.5 °F /  14.2 °C 30.11in /  1019.5hPa Calm   4mph /  6.4km/h 91% 0.00in /  0mm 12 W/m2
07:54 60.2 °F /  15.7 °C 57.6 °F /  14.2 °C 30.11in /  1019.5hPa North 1.2mph /  1.9km/h 6mph /  9.7km/h 91% 0.00in /  0mm 14 W/m2
07:59 60.2 °F /  15.7 °C 57.6 °F /  14.2 °C 30.12in /  1019.9hPa Calm   6mph /  9.7km/h 91% 0.00in /  0mm 19 W/m2
08:09 60.3 °F /  15.7 °C 57.7 °F /  14.3 °C 30.11in /  1019.5hPa NE 0.6mph /  1km/h 7mph /  11.3km/h 91% 0.00in /  0mm 42 W/m2
08:14 60.3 °F /  15.7 °C 57.7 °F /  14.3 °C 30.11in /  1019.5hPa ENE 1.3mph /  2.1km/h 9mph /  14.5km/h 91% 0.00in /  0mm 51 W/m2
08:19 60.4 °F /  15.8 °C 57.8 °F /  14.3 °C 30.11in /  1019.5hPa NE 0.2mph /  0.3km/h 9mph /  14.5km/h 91% 0.00in /  0mm 56 W/m2
08:24 60.5 °F /  15.8 °C 57.8 °F /  14.3 °C 30.12in /  1019.9hPa NE 0.6mph /  1km/h 9mph /  14.5km/h 91% 0.00in /  0mm 42 W/m2
08:29 60.5 °F /  15.8 °C 57.9 °F /  14.4 °C 30.11in /  1019.5hPa ENE 1.3mph /  2.1km/h 9mph /  14.5km/h 91% 0.00in /  0mm 37 W/m2
08:34 60.5 °F /  15.8 °C 57.9 °F /  14.4 °C 30.11in /  1019.5hPa NE 0.4mph /  0.6km/h 9mph /  14.5km/h 91% 0.00in /  0mm 56 W/m2
08:39 60.6 °F /  15.9 °C 58 °F /  14.4 °C 30.11in /  1019.5hPa NE 0.4mph /  0.6km/h 4mph /  6.4km/h 91% 0.00in /  0mm 54 W/m2
08:44 60.7 °F /  15.9 °C 58.1 °F /  14.5 °C 30.11in /  1019.5hPa Calm   4mph /  6.4km/h 91% 0.00in /  0mm 77 W/m2
08:49 60.9 °F /  16.1 °C 58.3 °F /  14.6 °C 30.11in /  1019.5hPa NE 1mph /  1.6km/h 7mph /  11.3km/h 91.2% 0.00in /  0mm 93 W/m2
08:54 61 °F /  16.1 °C 58.4 °F /  14.7 °C 30.11in /  1019.5hPa ENE 0.4mph /  0.6km/h 7mph /  11.3km/h 91% 0.00in /  0mm 114 W/m2
08:59 61.1 °F /  16.2 °C 58.5 °F /  14.7 °C 30.11in /  1019.5hPa ENE 0.4mph /  0.6km/h 7mph /  11.3km/h 91% 0.00in /  0mm 125 W/m2
09:04 61.3 °F /  16.3 °C 58.7 °F /  14.8 °C 30.11in /  1019.5hPa ENE 0.3mph /  0.5km/h 7mph /  11.3km/h 91% 0.00in /  0mm 116 W/m2
09:09 61.6 °F /  16.4 °C 58.9 °F /  14.9 °C 30.12in /  1019.9hPa NNE 0.5mph /  0.8km/h 4mph /  6.4km/h 90.9% 0.00in /  0mm 116 W/m2
09:14 61.8 °F /  16.6 °C 58.8 °F /  14.9 °C 30.12in /  1019.9hPa NE 0.3mph /  0.5km/h 4mph /  6.4km/h 90% 0.00in /  0mm 109 W/m2
09:19 62 °F /  16.7 °C 59.1 °F /  15.1 °C 30.11in /  1019.5hPa NNE 0.1mph /  0.2km/h 4mph /  6.4km/h 90.2% 0.00in /  0mm 120 W/m2
09:24 62.2 °F /  16.8 °C 59.2 °F /  15.1 °C 30.11in /  1019.5hPa NE 0.1mph /  0.2km/h 4mph /  6.4km/h 89.8% 0.00in /  0mm 109 W/m2
09:29 62.4 °F /  16.9 °C 59.4 °F /  15.2 °C 30.11in /  1019.5hPa NW 0.5mph /  0.8km/h 5mph /  8km/h 90% 0.00in /  0mm 105 W/m2
09:34 62.6 °F /  17 °C 59.4 °F /  15.2 °C 30.11in /  1019.5hPa Calm   5mph /  8km/h 89.5% 0.00in /  0mm 105 W/m2
09:39 62.7 °F /  17.1 °C 59.4 °F /  15.2 °C 30.11in /  1019.5hPa NE 0.3mph /  0.5km/h 5mph /  8km/h 89% 0.00in /  0mm 105 W/m2
09:44 62.8 °F /  17.1 °C 59.5 °F /  15.3 °C 30.11in /  1019.5hPa NE 0.5mph /  0.8km/h 5mph /  8km/h 89% 0.00in /  0mm 156 W/m2
09:49 63 °F /  17.2 °C 59.7 °F /  15.4 °C 30.11in /  1019.5hPa NE 1.1mph /  1.8km/h 5mph /  8km/h 89% 0.00in /  0mm 162 W/m2
09:54 63.1 °F /  17.3 °C 59.7 °F /  15.4 °C 30.11in /  1019.5hPa ENE 1.2mph /  1.9km/h 7mph /  11.3km/h 88.5% 0.00in /  0mm 209 W/m2
09:59 63.4 °F /  17.4 °C 59.9 °F /  15.5 °C 30.11in /  1019.5hPa East 0.4mph /  0.6km/h 7mph /  11.3km/h 88.3% 0.00in /  0mm 250 W/m2
10:04 63.7 °F /  17.6 °C 60.1 °F /  15.6 °C 30.11in /  1019.5hPa East 0.1mph /  0.2km/h 7mph /  11.3km/h 88% 0.00in /  0mm 195 W/m2
10:09 64.1 °F /  17.8 °C 60.5 °F /  15.8 °C 30.11in /  1019.5hPa NE 0.7mph /  1.1km/h 6mph /  9.7km/h 88.2% 0.00in /  0mm 223 W/m2
10:14 64.3 °F /  17.9 °C 60.4 °F /  15.8 °C 30.10in /  1019.2hPa NE 1.1mph /  1.8km/h 6mph /  9.7km/h 87.1% 0.00in /  0mm 237 W/m2
10:19 64.6 °F /  18.1 °C 60.7 °F /  15.9 °C 30.10in /  1019.2hPa Calm   6mph /  9.7km/h 87% 0.00in /  0mm 199 W/m2
10:24 65 °F /  18.3 °C 61 °F /  16.1 °C 30.11in /  1019.5hPa ESE 0.1mph /  0.2km/h 6mph /  9.7km/h 87% 0.00in /  0mm 200 W/m2
10:29 65.2 °F /  18.4 °C 61.1 °F /  16.2 °C 30.11in /  1019.5hPa East 0.1mph /  0.2km/h 6mph /  9.7km/h 86.3% 0.00in /  0mm 209 W/m2
10:34 65.6 °F /  18.7 °C 61.3 °F /  16.3 °C 30.11in /  1019.5hPa NNW 0.9mph /  1.4km/h 7mph /  11.3km/h 86% 0.00in /  0mm 211 W/m2
10:39 65.8 °F /  18.8 °C 61.3 °F /  16.3 °C 30.11in /  1019.5hPa NW 0.4mph /  0.6km/h 7mph /  11.3km/h 85.3% 0.00in /  0mm 227 W/m2
10:44 66.1 °F /  18.9 °C 61.4 °F /  16.3 °C 30.11in /  1019.5hPa NE 0.5mph /  0.8km/h 7mph /  11.3km/h 84.8% 0.00in /  0mm 197 W/m2
10:49 66.1 °F /  18.9 °C 60.9 °F /  16.1 °C 30.11in /  1019.5hPa ENE 0.4mph /  0.6km/h 7mph /  11.3km/h 83.3% 0.00in /  0mm 193 W/m2
10:54 66.2 °F /  19 °C 61.2 °F /  16.2 °C 30.11in /  1019.5hPa Calm   7mph /  11.3km/h 84% 0.00in /  0mm 195 W/m2
10:59 66.2 °F /  19 °C 61.3 °F /  16.3 °C 30.11in /  1019.5hPa NNE 0.2mph /  0.3km/h 7mph /  11.3km/h 84% 0.00in /  0mm 158 W/m2
11:04 66.3 °F /  19.1 °C 61.3 °F /  16.3 °C 30.11in /  1019.5hPa NNE 0.1mph /  0.2km/h 7mph /  11.3km/h 83.8% 0.00in /  0mm 146 W/m2
11:09 66.3 °F /  19.1 °C 61.1 °F /  16.2 °C 30.11in /  1019.5hPa North 0.7mph /  1.1km/h 6mph /  9.7km/h 83.3% 0.00in /  0mm 149 W/m2
11:14 66.3 °F /  19.1 °C 61 °F /  16.1 °C 30.10in /  1019.2hPa Calm   6mph /  9.7km/h 83% 0.00in /  0mm 146 W/m2
11:19 66.1 °F /  18.9 °C 60.8 °F /  16 °C 30.10in /  1019.2hPa NNW 0.3mph /  0.5km/h 6mph /  9.7km/h 83% 0.00in /  0mm 128 W/m2
11:24 65.9 °F /  18.8 °C 60.7 °F /  15.9 °C 30.10in /  1019.2hPa NE 0.2mph /  0.3km/h 6mph /  9.7km/h 83.2% 0.00in /  0mm 116 W/m2
11:29 65.6 °F /  18.7 °C 60.6 °F /  15.9 °C 30.10in /  1019.2hPa NW 1.2mph /  1.9km/h 6mph /  9.7km/h 83.7% 0.00in /  0mm 121 W/m2
11:34 65.5 °F /  18.6 °C 60.8 °F /  16 °C 30.10in /  1019.2hPa NNE 0.2mph /  0.3km/h 6mph /  9.7km/h 84.7% 0.00in /  0mm 229 W/m2
11:39 65.7 °F /  18.7 °C 61.2 °F /  16.2 °C 30.10in /  1019.2hPa NNE 0.2mph /  0.3km/h 3mph /  4.8km/h 85.5% 0.00in /  0mm 279 W/m2
11:44 65.9 °F /  18.8 °C 61.3 °F /  16.3 °C 30.10in /  1019.2hPa NE 0.7mph /  1.1km/h 6mph /  9.7km/h 85% 0.00in /  0mm 283 W/m2
11:49 66.2 °F /  19 °C 61.4 °F /  16.3 °C 30.10in /  1019.2hPa NNW 0.6mph /  1km/h 6mph /  9.7km/h 84.7% 0.00in /  0mm 267 W/m2
11:54 66.5 °F /  19.2 °C 61.6 °F /  16.4 °C 30.09in /  1018.8hPa NNE 0.2mph /  0.3km/h 6mph /  9.7km/h 84.2% 0.00in /  0mm 234 W/m2
11:59 66.8 °F /  19.3 °C 61.7 °F /  16.5 °C 30.09in /  1018.8hPa North 0.3mph /  0.5km/h 7mph /  11.3km/h 83.7% 0.00in /  0mm 255 W/m2
12:09 67.4 °F /  19.7 °C 62.1 °F /  16.7 °C 30.09in /  1018.8hPa North 0.5mph /  0.8km/h 5mph /  8km/h 83.2% 0.00in /  0mm 251 W/m2
12:14 67.6 °F /  19.8 °C 62.1 °F /  16.7 °C 30.09in /  1018.8hPa NE 0.4mph /  0.6km/h 5mph /  8km/h 82.5% 0.00in /  0mm 276 W/m2
12:19 67.6 °F /  19.8 °C 61.9 °F /  16.6 °C 30.09in /  1018.8hPa ENE 1.3mph /  2.1km/h 5mph /  8km/h 81.8% 0.00in /  0mm 258 W/m2
12:24 67.8 °F /  19.9 °C 62.1 °F /  16.7 °C 30.09in /  1018.8hPa North 0.6mph /  1km/h 5mph /  8km/h 82.1% 0.00in /  0mm 267 W/m2
12:29 68 °F /  20 °C 62.3 °F /  16.8 °C 30.09in /  1018.8hPa NNW 1.1mph /  1.8km/h 9mph /  14.5km/h 82% 0.00in /  0mm 248 W/m2
12:34 68.1 °F /  20.1 °C 62.4 °F /  16.9 °C 30.08in /  1018.5hPa NNW 0.1mph /  0.2km/h 9mph /  14.5km/h 82% 0.00in /  0mm 185 W/m2
12:39 68.2 °F /  20.1 °C 62.3 °F /  16.8 °C 30.08in /  1018.5hPa NE 0.8mph /  1.3km/h 8mph /  12.9km/h 81.5% 0.00in /  0mm 251 W/m2
12:44 68.1 °F /  20.1 °C 61.9 °F /  16.6 °C 30.08in /  1018.5hPa ENE 0.5mph /  0.8km/h 8mph /  12.9km/h 80.6% 0.00in /  0mm 265 W/m2
12:49 68.2 °F /  20.1 °C 62.1 °F /  16.7 °C 30.08in /  1018.5hPa North 0.5mph /  0.8km/h 8mph /  12.9km/h 81% 0.00in /  0mm 265 W/m2
12:54 68.4 °F /  20.2 °C 62.4 °F /  16.9 °C 30.08in /  1018.5hPa ENE 0.3mph /  0.5km/h 8mph /  12.9km/h 81.2% 0.00in /  0mm 183 W/m2
12:59 68.3 °F /  20.2 °C 62.1 °F /  16.7 °C 30.08in /  1018.5hPa Calm   8mph /  12.9km/h 80.4% 0.00in /  0mm 211 W/m2
13:04 68.3 °F /  20.2 °C 62.1 °F /  16.7 °C 30.08in /  1018.5hPa North 1.2mph /  1.9km/h 11mph /  17.7km/h 80.5% 0.00in /  0mm 258 W/m2
13:09 68.2 °F /  20.1 °C 62 °F /  16.7 °C 30.08in /  1018.5hPa ENE 1mph /  1.6km/h 11mph /  17.7km/h 80.5% 0.00in /  0mm 278 W/m2
13:14 68.2 °F /  20.1 °C 61.8 °F /  16.6 °C 30.08in /  1018.5hPa ENE 0.8mph /  1.3km/h 11mph /  17.7km/h 80% 0.00in /  0mm 229 W/m2
13:19 68.2 °F /  20.1 °C 62 °F /  16.7 °C 30.08in /  1018.5hPa North 1.2mph /  1.9km/h 11mph /  17.7km/h 80.5% 0.00in /  0mm 234 W/m2
13:24 68.3 °F /  20.2 °C 61.9 °F /  16.6 °C 30.08in /  1018.5hPa NE 0.2mph /  0.3km/h 11mph /  17.7km/h 80.1% 0.00in /  0mm 250 W/m2
13:29 68.4 °F /  20.2 °C 62.2 °F /  16.8 °C 30.08in /  1018.5hPa NE 0.9mph /  1.4km/h 11mph /  17.7km/h 80.4% 0.00in /  0mm 243 W/m2
13:34 68.6 °F /  20.3 °C 61.8 °F /  16.6 °C 30.07in /  1018.2hPa ENE 2.1mph /  3.4km/h 14mph /  22.5km/h 79.1% 0.00in /  0mm 116 W/m2
13:39 68.5 °F /  20.3 °C 61.8 °F /  16.6 °C 30.07in /  1018.2hPa ENE 1.2mph /  1.9km/h 14mph /  22.5km/h 79.2% 0.00in /  0mm 141 W/m2
13:44 68.3 °F /  20.2 °C 61.6 °F /  16.4 °C 30.07in /  1018.2hPa NNW 1.3mph /  2.1km/h 14mph /  22.5km/h 79.2% 0.00in /  0mm 149 W/m2
13:49 68.3 °F /  20.2 °C 61.8 °F /  16.6 °C 30.07in /  1018.2hPa NE 1.1mph /  1.8km/h 14mph /  22.5km/h 79.8% 0.00in /  0mm 171 W/m2
13:54 68.4 °F /  20.2 °C 62.2 °F /  16.8 °C 30.07in /  1018.2hPa NNW 0.2mph /  0.3km/h 14mph /  22.5km/h 80.4% 0.00in /  0mm 213 W/m2
13:59 68.7 °F /  20.4 °C 62.4 °F /  16.9 °C 30.07in /  1018.2hPa NNE 0.6mph /  1km/h 14mph /  22.5km/h 80.3% 0.00in /  0mm 213 W/m2
14:04 68.8 °F /  20.4 °C 61.9 °F /  16.6 °C 30.07in /  1018.2hPa ENE 1mph /  1.6km/h 14mph /  22.5km/h 78.5% 0.00in /  0mm 213 W/m2
14:09 69 °F /  20.6 °C 62 °F /  16.7 °C 30.07in /  1018.2hPa East 0.3mph /  0.5km/h 5mph /  8km/h 78.5% 0.00in /  0mm 193 W/m2
14:14 69 °F /  20.6 °C 61.9 °F /  16.6 °C 30.07in /  1018.2hPa NE 2.2mph /  3.5km/h 10mph /  16.1km/h 78.1% 0.00in /  0mm 234 W/m2
14:19 69.2 °F /  20.7 °C 62.2 °F /  16.8 °C 30.07in /  1018.2hPa ENE 1mph /  1.6km/h 10mph /  16.1km/h 78.6% 0.00in /  0mm 244 W/m2
14:24 69.3 °F /  20.7 °C 62.3 °F /  16.8 °C 30.07in /  1018.2hPa ENE 0.3mph /  0.5km/h 10mph /  16.1km/h 78.5% 0.00in /  0mm 200 W/m2
14:29 69.5 °F /  20.8 °C 62.3 °F /  16.8 °C 30.07in /  1018.2hPa NE 1.1mph /  1.8km/h 10mph /  16.1km/h 78% 0.00in /  0mm 190 W/m2
14:34 69.6 °F /  20.9 °C 62.5 °F /  16.9 °C 30.06in /  1017.8hPa North 0.7mph /  1.1km/h 10mph /  16.1km/h 78% 0.00in /  0mm 204 W/m2
14:39 69.8 °F /  21 °C 62.6 °F /  17 °C 30.07in /  1018.2hPa NE 0.4mph /  0.6km/h 5mph /  8km/h 77.8% 0.00in /  0mm 209 W/m2
14:44 70 °F /  21.1 °C 62.8 °F /  17.1 °C 30.07in /  1018.2hPa NNE 0.1mph /  0.2km/h 5mph /  8km/h 78.1% 0.00in /  0mm 183 W/m2
14:49 69.9 °F /  21.1 °C 62.1 °F /  16.7 °C 30.06in /  1017.8hPa East 1.3mph /  2.1km/h 6mph /  9.7km/h 76.3% 0.00in /  0mm 116 W/m2
14:54 69.7 °F /  20.9 °C 61.8 °F /  16.6 °C 30.06in /  1017.8hPa NE 0.3mph /  0.5km/h 6mph /  9.7km/h 76% 0.00in /  0mm 74 W/m2
14:59 69.6 °F /  20.9 °C 62 °F /  16.7 °C 30.06in /  1017.8hPa ENE 1.4mph /  2.3km/h 9mph /  14.5km/h 76.7% 0.00in /  0mm 109 W/m2
15:04 69.6 °F /  20.9 °C 61.7 °F /  16.5 °C 30.06in /  1017.8hPa ENE 0.3mph /  0.5km/h 9mph /  14.5km/h 76% 0.00in /  0mm 318 W/m2
15:09 69.7 °F /  20.9 °C 61.7 °F /  16.5 °C 30.05in /  1017.5hPa ENE 1.2mph /  1.9km/h 7mph /  11.3km/h 75.9% 0.00in /  0mm 76 W/m2
15:14 69.7 °F /  20.9 °C 61.4 °F /  16.3 °C 30.05in /  1017.5hPa East 0.8mph /  1.3km/h 7mph /  11.3km/h 74.8% 0.00in /  0mm 79 W/m2
15:19 69.8 °F /  21 °C 61.3 °F /  16.3 °C 30.05in /  1017.5hPa ENE 2mph /  3.2km/h 7mph /  11.3km/h 74.5% 0.00in /  0mm 197 W/m2
15:24 69.8 °F /  21 °C 61.2 °F /  16.2 °C 30.05in /  1017.5hPa ENE 1.2mph /  1.9km/h 7mph /  11.3km/h 74.1% 0.00in /  0mm 197 W/m2
15:29 69.9 °F /  21.1 °C 61.8 °F /  16.6 °C 30.05in /  1017.5hPa ENE 0.4mph /  0.6km/h 7mph /  11.3km/h 75.5% 0.00in /  0mm 207 W/m2
15:34 70.1 °F /  21.2 °C 61.6 °F /  16.4 °C 30.05in /  1017.5hPa ENE 1.2mph /  1.9km/h 10mph /  16.1km/h 74.3% 0.00in /  0mm 207 W/m2
15:39 70.2 °F /  21.2 °C 61.2 °F /  16.2 °C 30.05in /  1017.5hPa NNE 0.6mph /  1km/h 10mph /  16.1km/h 73.2% 0.00in /  0mm 151 W/m2
15:44 70.3 °F /  21.3 °C 61.1 °F /  16.2 °C 30.05in /  1017.5hPa NE 1.1mph /  1.8km/h 10mph /  16.1km/h 72.6% 0.00in /  0mm 42 W/m2
15:49 70.2 °F /  21.2 °C 60.9 °F /  16.1 °C 30.05in /  1017.5hPa NE 0.8mph /  1.3km/h 10mph /  16.1km/h 72.3% 0.00in /  0mm 56 W/m2
15:54 70.2 °F /  21.2 °C 61.2 °F /  16.2 °C 30.05in /  1017.5hPa ENE 1.8mph /  2.9km/h 10mph /  16.1km/h 73% 0.00in /  0mm 86 W/m2
15:59 70.2 °F /  21.2 °C 61.2 °F /  16.2 °C 30.05in /  1017.5hPa ENE 1.7mph /  2.7km/h 10mph /  16.1km/h 73% 0.00in /  0mm 97 W/m2
16:00 70.3 °F /  21.3 °C 61.3 °F /  16.3 °C 30.05in /  1017.5hPa East 4.5mph /  7.2km/h 10mph /  16.1km/h 73% 0.00in /  0mm 104 W/m2
16:09 70.3 °F /  21.3 °C 61 °F /  16.1 °C 30.06in /  1017.8hPa NE 1.9mph /  3.1km/h 7mph /  11.3km/h 72.2% 0.00in /  0mm 30 W/m2
16:14 70.2 °F /  21.2 °C 60.8 °F /  16 °C 30.05in /  1017.5hPa NE 1.1mph /  1.8km/h 7mph /  11.3km/h 72.3% 0.00in /  0mm 35 W/m2
16:19 70 °F /  21.1 °C 61 °F /  16.1 °C 30.06in /  1017.8hPa ENE 0.8mph /  1.3km/h 7mph /  11.3km/h 73% 0.00in /  0mm 95 W/m2
16:24 70 °F /  21.1 °C 60.9 °F /  16.1 °C 30.06in /  1017.8hPa NE 1.9mph /  3.1km/h 7mph /  11.3km/h 72.8% 0.00in /  0mm 98 W/m2
16:29 70.2 °F /  21.2 °C 61.1 °F /  16.2 °C 30.06in /  1017.8hPa NE 1.9mph /  3.1km/h 9mph /  14.5km/h 72.9% 0.00in /  0mm 83 W/m2
16:34 70.3 °F /  21.3 °C 61 °F /  16.1 °C 30.06in /  1017.8hPa ENE 1.2mph /  1.9km/h 9mph /  14.5km/h 72.4% 0.00in /  0mm 35 W/m2
16:39 70.3 °F /  21.3 °C 61 °F /  16.1 °C 30.06in /  1017.8hPa ENE 0.1mph /  0.2km/h 5mph /  8km/h 72.6% 0.00in /  0mm 26 W/m2
16:44 70.1 °F /  21.2 °C 61.1 °F /  16.2 °C 30.06in /  1017.8hPa East 0.2mph /  0.3km/h 5mph /  8km/h 73% 0.00in /  0mm 33 W/m2
16:49 69.9 °F /  21.1 °C 60.9 °F /  16.1 °C 30.06in /  1017.8hPa NNE 0.7mph /  1.1km/h 7mph /  11.3km/h 73% 0.00in /  0mm 51 W/m2
16:54 69.9 °F /  21.1 °C 60.9 °F /  16.1 °C 30.06in /  1017.8hPa NNW 0.7mph /  1.1km/h 7mph /  11.3km/h 73.2% 0.00in /  0mm 72 W/m2
16:59 69.9 °F /  21.1 °C 61.2 °F /  16.2 °C 30.06in /  1017.8hPa NNE 0.9mph /  1.4km/h 7mph /  11.3km/h 73.9% 0.00in /  0mm 76 W/m2
17:04 70 °F /  21.1 °C 60.8 °F /  16 °C 30.06in /  1017.8hPa East 0.7mph /  1.1km/h 7mph /  11.3km/h 72.7% 0.00in /  0mm 58 W/m2
17:09 70 °F /  21.1 °C 61 °F /  16.1 °C 30.06in /  1017.8hPa ENE 0.8mph /  1.3km/h 6mph /  9.7km/h 73% 0.00in /  0mm 42 W/m2
17:14 69.9 °F /  21.1 °C 60.8 °F /  16 °C 30.06in /  1017.8hPa ENE 1.2mph /  1.9km/h 7mph /  11.3km/h 72.8% 0.00in /  0mm 42 W/m2
17:19 69.8 °F /  21 °C 60.6 °F /  15.9 °C 30.06in /  1017.8hPa NE 0.6mph /  1km/h 7mph /  11.3km/h 72.5% 0.00in /  0mm 33 W/m2
17:24 69.6 °F /  20.9 °C 60.6 °F /  15.9 °C 30.06in /  1017.8hPa ENE 0.2mph /  0.3km/h 7mph /  11.3km/h 73% 0.00in /  0mm 21 W/m2
17:29 69.4 °F /  20.8 °C 60.4 °F /  15.8 °C 30.06in /  1017.8hPa ENE 0.3mph /  0.5km/h 7mph /  11.3km/h 73% 0.00in /  0mm 14 W/m2
17:34 69.2 °F /  20.7 °C 60.5 °F /  15.8 °C 30.06in /  1017.8hPa Calm   7mph /  11.3km/h 73.8% 0.00in /  0mm 12 W/m2
17:39 69 °F /  20.6 °C 60.6 °F /  15.9 °C 30.06in /  1017.8hPa Calm     74.4% 0.00in /  0mm 12 W/m2
17:44 68.8 °F /  20.4 °C 60.6 °F /  15.9 °C 30.06in /  1017.8hPa Calm     75% 0.00in /  0mm 11 W/m2
17:49 68.6 °F /  20.3 °C 60.3 °F /  15.7 °C 30.06in /  1017.8hPa ENE 0.2mph /  0.3km/h 3mph /  4.8km/h 75% 0.00in /  0mm 7 W/m2
17:54 68.4 °F /  20.2 °C 60.4 °F /  15.8 °C 30.06in /  1017.8hPa ENE 0.4mph /  0.6km/h 4mph /  6.4km/h 75.7% 0.00in /  0mm 5 W/m2
17:59 68.2 °F /  20.1 °C 60.3 °F /  15.7 °C 30.07in /  1018.2hPa Calm   4mph /  6.4km/h 76% 0.00in /  0mm 0 W/m2
18:04 68 °F /  20 °C 60.3 °F /  15.7 °C 30.07in /  1018.2hPa Calm   4mph /  6.4km/h 76.6% 0.00in /  0mm 0 W/m2
18:09 67.8 °F /  19.9 °C 60.3 °F /  15.7 °C 30.07in /  1018.2hPa Calm     77% 0.00in /  0mm 0 W/m2
18:14 67.6 °F /  19.8 °C 60.3 °F /  15.7 °C 30.07in /  1018.2hPa Calm     77.4% 0.00in /  0mm 0 W/m2
18:19 67.3 °F /  19.6 °C 60.3 °F /  15.7 °C 30.07in /  1018.2hPa Calm     78% 0.00in /  0mm 0 W/m2
18:24 67.1 °F /  19.5 °C 60.1 °F /  15.6 °C 30.06in /  1017.8hPa Calm     78% 0.00in /  0mm 0 W/m2
18:29 66.9 °F /  19.4 °C 60.1 °F /  15.6 °C 30.07in /  1018.2hPa Calm     78.9% 0.00in /  0mm 0 W/m2
18:34 66.7 °F /  19.3 °C 60 °F /  15.6 °C 30.07in /  1018.2hPa Calm     79% 0.00in /  0mm 0 W/m2
18:39 66.5 °F /  19.2 °C 59.8 °F /  15.4 °C 30.07in /  1018.2hPa Calm     79.1% 0.00in /  0mm 0 W/m2
18:44 66.3 °F /  19.1 °C 59.9 °F /  15.5 °C 30.07in /  1018.2hPa Calm     80% 0.00in /  0mm 0 W/m2
18:49 66 °F /  18.9 °C 59.8 °F /  15.4 °C 30.07in /  1018.2hPa Calm     80.3% 0.00in /  0mm 0 W/m2
18:54 65.8 °F /  18.8 °C 59.8 °F /  15.4 °C 30.07in /  1018.2hPa Calm     81% 0.00in /  0mm 0 W/m2
18:59 65.6 °F /  18.7 °C 59.8 °F /  15.4 °C 30.08in /  1018.5hPa Calm     81.5% 0.00in /  0mm 0 W/m2
19:04 65.3 °F /  18.5 °C 59.7 °F /  15.4 °C 30.08in /  1018.5hPa Calm     82% 0.00in /  0mm 0 W/m2
19:09 65 °F /  18.3 °C 59.7 °F /  15.4 °C 30.08in /  1018.5hPa Calm     82.8% 0.00in /  0mm 0 W/m2
19:14 64.7 °F /  18.2 °C 59.4 °F /  15.2 °C 30.08in /  1018.5hPa Calm     83% 0.00in /  0mm 0 W/m2
19:19 64.5 °F /  18.1 °C 59.5 °F /  15.3 °C 30.08in /  1018.5hPa Calm     83.8% 0.00in /  0mm 0 W/m2
19:24 64.2 °F /  17.9 °C 59.3 °F /  15.2 °C 30.08in /  1018.5hPa Calm     84% 0.00in /  0mm 0 W/m2
19:29 64 °F /  17.8 °C 59.1 °F /  15.1 °C 30.08in /  1018.5hPa Calm     84% 0.00in /  0mm 0 W/m2
19:34 63.8 °F /  17.7 °C 59.2 °F /  15.1 °C 30.08in /  1018.5hPa Calm     84.9% 0.00in /  0mm 0 W/m2
19:39 63.6 °F /  17.6 °C 59 °F /  15 °C 30.08in /  1018.5hPa Calm     85% 0.00in /  0mm 0 W/m2
19:44 63.4 °F /  17.4 °C 59.1 °F /  15.1 °C 30.08in /  1018.5hPa Calm     86% 0.00in /  0mm 0 W/m2
19:49 63.2 °F /  17.3 °C 59 °F /  15 °C 30.08in /  1018.5hPa Calm     86% 0.00in /  0mm 0 W/m2
19:54 63 °F /  17.2 °C 58.8 °F /  14.9 °C 30.08in /  1018.5hPa Calm     86% 0.00in /  0mm 0 W/m2
19:59 62.9 °F /  17.2 °C 58.6 °F /  14.8 °C 30.08in /  1018.5hPa Calm     86% 0.00in /  0mm 0 W/m2
20:00 62.8 °F /  17.1 °C 58.6 °F /  14.8 °C 30.08in /  1018.5hPa Calm     86% 0.00in /  0mm 0 W/m2
20:09 62.5 °F /  16.9 °C 58.5 °F /  14.7 °C 30.09in /  1018.8hPa Calm     86.7% 0.00in /  0mm 0 W/m2
20:14 62.4 °F /  16.9 °C 58.5 °F /  14.7 °C 30.08in /  1018.5hPa Calm     87% 0.00in /  0mm 0 W/m2
20:19 62.3 °F /  16.8 °C 58.4 °F /  14.7 °C 30.08in /  1018.5hPa Calm     87.2% 0.00in /  0mm 0 W/m2
20:24 62.2 °F /  16.8 °C 58.6 °F /  14.8 °C 30.08in /  1018.5hPa Calm     88% 0.00in /  0mm 0 W/m2
20:29 62.1 °F /  16.7 °C 58.5 °F /  14.7 °C 30.08in /  1018.5hPa Calm     88% 0.00in /  0mm 0 W/m2
20:34 62 °F /  16.7 °C 58.4 °F /  14.7 °C 30.08in /  1018.5hPa Calm     88% 0.00in /  0mm 0 W/m2
20:39 61.9 °F /  16.6 °C 58.3 °F /  14.6 °C 30.08in /  1018.5hPa Calm     88% 0.00in /  0mm 0 W/m2
20:44 61.8 °F /  16.6 °C 58.2 °F /  14.6 °C 30.08in /  1018.5hPa Calm     88% 0.00in /  0mm 0 W/m2
20:49 61.6 °F /  16.4 °C 58 °F /  14.4 °C 30.08in /  1018.5hPa Calm     88% 0.00in /  0mm 0 W/m2
20:54 61.5 °F /  16.4 °C 57.9 °F /  14.4 °C 30.08in /  1018.5hPa Calm     88% 0.00in /  0mm 0 W/m2
20:59 61.3 °F /  16.3 °C 57.8 °F /  14.3 °C 30.08in /  1018.5hPa Calm     88.2% 0.00in /  0mm 0 W/m2
21:04 61.2 °F /  16.2 °C 58 °F /  14.4 °C 30.08in /  1018.5hPa Calm     89% 0.00in /  0mm 0 W/m2
21:09 61.1 °F /  16.2 °C 57.8 °F /  14.3 °C 30.08in /  1018.5hPa Calm     89% 0.00in /  0mm 0 W/m2
21:14 60.9 °F /  16.1 °C 57.7 °F /  14.3 °C 30.09in /  1018.8hPa Calm     89% 0.00in /  0mm 0 W/m2
21:19 60.8 °F /  16 °C 57.6 °F /  14.2 °C 30.09in /  1018.8hPa Calm     89% 0.00in /  0mm 0 W/m2
21:24 60.7 °F /  15.9 °C 57.7 °F /  14.3 °C 30.09in /  1018.8hPa Calm     89.7% 0.00in /  0mm 0 W/m2
21:29 60.7 °F /  15.9 °C 57.7 °F /  14.3 °C 30.09in /  1018.8hPa Calm     90% 0.00in /  0mm 0 W/m2
21:34 60.5 °F /  15.8 °C 57.6 °F /  14.2 °C 30.09in /  1018.8hPa Calm     90% 0.00in /  0mm 0 W/m2
21:39 60.4 °F /  15.8 °C 57.6 °F /  14.2 °C 30.09in /  1018.8hPa Calm     90.4% 0.00in /  0mm 0 W/m2
21:44 60.3 °F /  15.7 °C 57.3 °F /  14.1 °C 30.09in /  1018.8hPa Calm     90% 0.00in /  0mm 0 W/m2
21:49 60.2 °F /  15.7 °C 57.2 °F /  14 °C 30.09in /  1018.8hPa Calm     90% 0.00in /  0mm 0 W/m2
21:54 60 °F /  15.6 °C 57.2 °F /  14 °C 30.09in /  1018.8hPa Calm     90.3% 0.00in /  0mm 0 W/m2
21:59 60 °F /  15.6 °C 57.3 °F /  14.1 °C 30.09in /  1018.8hPa Calm     91% 0.00in /  0mm 0 W/m2
22:04 59.9 °F /  15.5 °C 57.2 °F /  14 °C 30.09in /  1018.8hPa Calm     91% 0.00in /  0mm 0 W/m2
22:09 59.8 °F /  15.4 °C 57.2 °F /  14 °C 30.09in /  1018.8hPa Calm     91% 0.00in /  0mm 0 W/m2
22:14 59.8 °F /  15.4 °C 57.2 °F /  14 °C 30.08in /  1018.5hPa Calm     91% 0.00in /  0mm 0 W/m2
22:19 59.7 °F /  15.4 °C 57.2 °F /  14 °C 30.08in /  1018.5hPa Calm     91.4% 0.00in /  0mm 0 W/m2
22:24 59.7 °F /  15.4 °C 57.4 °F /  14.1 °C 30.08in /  1018.5hPa Calm     92% 0.00in /  0mm 0 W/m2
22:29 59.7 °F /  15.4 °C 57.3 °F /  14.1 °C 30.08in /  1018.5hPa Calm     92% 0.00in /  0mm 0 W/m2
22:34 59.6 °F /  15.3 °C 57.3 °F /  14.1 °C 30.08in /  1018.5hPa Calm     92% 0.00in /  0mm 0 W/m2
22:39 59.6 °F /  15.3 °C 57.3 °F /  14.1 °C 30.08in /  1018.5hPa Calm     92% 0.00in /  0mm 0 W/m2
22:44 59.5 °F /  15.3 °C 57.2 °F /  14 °C 30.08in /  1018.5hPa Calm     92% 0.00in /  0mm 0 W/m2
22:49 59.4 °F /  15.2 °C 57.1 °F /  13.9 °C 30.08in /  1018.5hPa Calm     92% 0.00in /  0mm 0 W/m2
22:54 59.4 °F /  15.2 °C 57.1 °F /  13.9 °C 30.08in /  1018.5hPa Calm     92% 0.00in /  0mm 0 W/m2
22:59 59.3 °F /  15.2 °C 57 °F /  13.9 °C 30.09in /  1018.8hPa Calm     92% 0.00in /  0mm 0 W/m2
23:04 59.2 °F /  15.1 °C 56.9 °F /  13.8 °C 30.09in /  1018.8hPa Calm     92% 0.00in /  0mm 0 W/m2
23:09 59.1 °F /  15.1 °C 56.8 °F /  13.8 °C 30.09in /  1018.8hPa Calm     92.2% 0.00in /  0mm 0 W/m2
23:14 59 °F /  15 °C 57 °F /  13.9 °C 30.09in /  1018.8hPa Calm     93% 0.00in /  0mm 0 W/m2
23:19 58.9 °F /  14.9 °C 56.7 °F /  13.7 °C 30.09in /  1018.8hPa Calm     92.3% 0.00in /  0mm 0 W/m2
23:24 58.9 °F /  14.9 °C 56.9 °F /  13.8 °C 30.09in /  1018.8hPa Calm     93% 0.00in /  0mm 0 W/m2
23:29 58.8 °F /  14.9 °C 56.8 °F /  13.8 °C 30.09in /  1018.8hPa Calm     93% 0.00in /  0mm 0 W/m2
23:34 58.7 °F /  14.8 °C 56.7 °F /  13.7 °C 30.09in /  1018.8hPa Calm     93% 0.00in /  0mm 0 W/m2
23:39 58.6 °F /  14.8 °C 56.6 °F /  13.7 °C 30.09in /  1018.8hPa Calm     93% 0.00in /  0mm 0 W/m2
23:44 58.5 °F /  14.7 °C 56.5 °F /  13.6 °C 30.09in /  1018.8hPa Calm     93% 0.00in /  0mm 0 W/m2
23:49 58.5 °F /  14.7 °C 56.4 °F /  13.6 °C 30.09in /  1018.8hPa Calm     93% 0.00in /  0mm 0 W/m2
23:54 58.4 °F /  14.7 °C 56.4 °F /  13.6 °C 30.09in /  1018.8hPa Calm     93% 0.00in /  0mm 0 W/m2
23:59 58.3 °F /  14.6 °C 56.3 °F /  13.5 °C 30.08in /  1018.5hPa Calm     93% 0.00in /  0mm 0 W/m2
Hartford County Weather
Compliments of Weather Underground - 4 mb